Lansdowne House, Canada
Current Conditions -  °F | °C
As of 7:00 PM on Thursday 18 Dec 2014 (Local Time) from CYLH Reporting Station
Clear Clear  
Wind Chill: -10°   Ceiling: Unl
Heat Index:   Visibility: 9mi
Dew Point: -2°   Wind: 5mph
Humidity: 92%   Direction: 230°SW
Pressure: 30.25"   Gusts: NA
Location:  52.21°N, 87.89°W
Report Text: CYLH 190000Z AUTO 23004KT 9SM CLR M18/M19 A3025 RMK SLP272
Loading
Personal Weather Stations






























Interactive Weather Map New forecast layout! Learn more

10-Day Weather Forecast

Advertisements
Track Severe Weather on mobile